Jaipur, India
Current Conditions -  °F | °C
As of 1:30 AM on Sunday 23 Nov 2014 (Local Time) from VIJP Reporting Station
Haze Haze  
Wind Chill: 18°   Ceiling: Unl
Heat Index: 18°   Visibility: 1.2mi
Dew Point:   Wind: 0mph
Humidity: 45%   Direction: NA
Pressure: 29.97"   Gusts: NA
Location:  26.91°N, 75.8°E
Report Text: VIJP 222030Z 00000KT 2000 HZ NSC 18/06 Q1015 NOSIG
Loading
Personal Weather Stations






























Interactive Weather Map New forecast layout! Learn more

10-Day Weather Forecast

Advertisements
Track Severe Weather on mobile